Time;durP1;ratioP1;P1;durP2;ratioP2;P2;SDS_P1;SDS_P2;PMS_P1;PMS_P2;Temp;Humidity;BMP_temperature;BMP_pressure;BME280_temperature;BME280_humidity;BME280_pressure;Samples;Min_cycle;Max_cycle;Signal;HPM_P1;HPM_P2
2022/10/05 00:01:46;;;;;;;;;6.00;6.00;;;;;13.26;68.41;100152.25;5038600;28;8836;-61
2022/10/05 00:04:15;;;;;;;;;4.00;3.50;;;;;13.25;68.02;100152.38;5038119;28;8808;-63
2022/10/05 00:06:43;;;;;;;;;6.00;4.50;;;;;13.22;68.25;100150.00;5038416;28;8816;-60
2022/10/05 00:09:11;;;;;;;;;8.00;7.25;;;;;13.19;68.37;100137.72;5038480;28;8848;-62
2022/10/05 00:11:38;;;;;;;;;5.00;5.00;;;;;13.14;68.30;100144.47;5038624;28;9561;-60
2022/10/05 00:14:06;;;;;;;;;8.00;7.00;;;;;13.08;68.87;100147.66;5038204;28;8831;-62
2022/10/05 00:16:34;;;;;;;;;6.00;6.00;;;;;13.03;68.91;100136.50;5037931;28;8920;-60
2022/10/05 00:19:01;;;;;;;;;6.00;6.00;;;;;13.00;68.96;100128.78;5036864;28;8851;-61
2022/10/05 00:21:29;;;;;;;;;7.00;6.75;;;;;12.95;69.10;100126.50;5037397;28;8828;-63
2022/10/05 00:23:57;;;;;;;;;7.00;6.00;;;;;12.94;69.19;100131.94;5037149;28;9509;-61
2022/10/05 00:26:25;;;;;;;;;7.00;7.00;;;;;12.93;68.91;100122.22;5036793;28;8836;-63
2022/10/05 00:28:52;;;;;;;;;6.25;6.00;;;;;12.94;69.58;100118.56;5036639;28;8824;-63
2022/10/05 00:31:20;;;;;;;;;6.00;6.00;;;;;12.96;69.30;100124.66;5035549;28;8859;-63
2022/10/05 00:33:48;;;;;;;;;6.00;4.50;;;;;12.99;68.99;100127.09;5036858;28;8868;-61
2022/10/05 00:36:15;;;;;;;;;6.50;6.00;;;;;13.01;68.75;100122.44;5037550;28;8828;-61
2022/10/05 00:38:43;;;;;;;;;8.50;6.50;;;;;13.07;68.46;100128.09;5036970;28;8840;-65
2022/10/05 00:41:11;;;;;;;;;2.00;1.00;;;;;13.08;68.36;100121.75;5037005;28;8820;-61
2022/10/05 00:43:38;;;;;;;;;4.00;3.50;;;;;13.06;68.82;100128.25;5038095;28;8925;-61
2022/10/05 00:46:07;;;;;;;;;6.00;5.50;;;;;13.05;68.69;100121.22;5037469;28;8852;-63
2022/10/05 00:48:37;;;;;;;;;2.50;2.00;;;;;13.01;68.73;100119.75;5037394;28;8967;-60
2022/10/05 00:51:05;;;;;;;;;6.50;6.50;;;;;13.00;69.32;100118.91;5037779;28;8909;-61
2022/10/05 00:53:33;;;;;;;;;3.50;3.50;;;;;13.01;68.65;100125.13;5037499;28;8832;-62
2022/10/05 00:56:01;;;;;;;;;6.50;6.00;;;;;13.02;69.10;100118.78;5037390;28;8831;-62
2022/10/05 00:58:28;;;;;;;;;7.50;7.50;;;;;13.03;69.07;100118.66;5036098;28;8823;-62
2022/10/05 01:00:56;;;;;;;;;9.00;7.00;;;;;13.02;69.12;100116.09;5036942;28;8921;-62
2022/10/05 01:03:24;;;;;;;;;5.00;4.00;;;;;13.02;68.72;100119.66;5037388;28;8840;-62
2022/10/05 01:05:51;;;;;;;;;4.50;4.25;;;;;13.01;69.28;100119.75;5037097;28;8840;-61
2022/10/05 01:08:19;;;;;;;;;4.00;4.00;;;;;13.00;69.16;100120.75;5036905;28;8856;-63
2022/10/05 01:10:46;;;;;;;;;5.50;5.50;;;;;12.97;69.06;100123.66;5036596;28;8824;-61
2022/10/05 01:13:14;;;;;;;;;5.00;5.00;;;;;12.92;69.03;100120.53;5036911;28;8913;-61
2022/10/05 01:15:42;;;;;;;;;7.50;6.50;;;;;12.88;69.25;100116.41;5036685;28;8856;-61
2022/10/05 01:18:10;;;;;;;;;5.00;5.00;;;;;12.86;69.82;100110.38;5036753;28;8879;-62
2022/10/05 01:20:38;;;;;;;;;6.00;5.00;;;;;12.83;69.24;100110.66;5036798;28;8832;-61
2022/10/05 01:23:05;;;;;;;;;9.00;7.00;;;;;12.79;69.00;100102.03;5036734;28;8882;-61
2022/10/05 01:25:33;;;;;;;;;6.50;5.75;;;;;12.75;69.74;100110.47;5036704;28;8905;-61
2022/10/05 01:28:01;;;;;;;;;5.00;5.00;;;;;12.69;69.97;100109.13;5036455;28;8840;-61
2022/10/05 01:30:29;;;;;;;;;6.50;6.50;;;;;12.65;70.30;100113.06;5036808;28;8879;-63
2022/10/05 01:32:56;;;;;;;;;8.00;6.00;;;;;12.65;69.24;100112.19;5036754;28;8840;-61
2022/10/05 01:35:24;;;;;;;;;4.00;4.00;;;;;12.63;69.85;100114.16;5036958;28;8848;-63
2022/10/05 01:37:52;;;;;;;;;4.50;4.50;;;;;12.61;69.85;100103.59;5036425;28;8824;-62
2022/10/05 01:40:19;;;;;;;;;6.50;4.00;;;;;12.62;69.90;100099.13;5037141;28;9525;-60
2022/10/05 01:42:47;;;;;;;;;6.00;4.00;;;;;12.67;69.89;100086.19;5035569;28;8820;-62
2022/10/05 01:45:15;;;;;;;;;7.00;6.75;;;;;12.71;69.25;100091.16;5036615;28;8914;-61
2022/10/05 01:47:43;;;;;;;;;6.50;6.50;;;;;12.78;69.55;100091.47;5036844;28;8905;-61
2022/10/05 01:50:11;;;;;;;;;3.00;3.00;;;;;12.82;69.87;100092.88;5036622;28;8815;-63
2022/10/05 01:52:38;;;;;;;;;8.00;8.00;;;;;12.83;69.20;100095.44;5036577;28;8917;-63
2022/10/05 01:55:06;;;;;;;;;7.25;6.50;;;;;12.83;69.19;100078.56;5036714;28;8847;-61
2022/10/05 01:57:34;;;;;;;;;6.00;5.50;;;;;12.85;69.24;100082.78;5036640;28;8927;-61
2022/10/05 02:00:02;;;;;;;;;3.50;3.50;;;;;12.88;69.99;100081.66;5036381;28;8815;-62
2022/10/05 02:02:29;;;;;;;;;9.25;7.00;;;;;12.90;69.40;100079.72;5036449;28;8851;-63
2022/10/05 02:04:57;;;;;;;;;7.00;7.00;;;;;12.92;69.61;100077.78;5036313;28;8835;-61
2022/10/05 02:07:29;;;;;;;;;7.00;6.00;;;;;12.94;69.71;100073.13;5036242;28;8828;-61
2022/10/05 02:09:57;;;;;;;;;0.25;0.25;;;;;12.95;69.10;100069.50;5016953;28;8858;-61
2022/10/05 02:12:25;;;;;;;;;4.00;3.25;;;;;12.96;68.98;100068.50;5016310;28;8854;-63
2022/10/05 02:14:54;;;;;;;;;9.00;8.00;;;;;12.97;69.06;100068.41;5016314;28;8916;-62
2022/10/05 02:17:21;;;;;;;;;5.00;5.00;;;;;12.98;69.92;100054.03;5016314;28;8885;-61
2022/10/05 02:19:49;;;;;;;;;10.00;8.00;;;;;13.00;69.35;100048.56;5034667;28;8836;-61
2022/10/05 02:22:17;;;;;;;;;6.50;6.00;;;;;13.03;69.80;100037.59;5035839;28;8915;-60
2022/10/05 02:24:45;;;;;;;;;8.00;7.50;;;;;13.05;69.67;100047.19;5036063;28;8909;-61
2022/10/05 02:27:13;;;;;;;;;6.00;6.00;;;;;13.06;70.00;100048.03;5036126;28;8824;-61
2022/10/05 02:29:41;;;;;;;;;7.00;7.00;;;;;13.06;69.91;100048.03;5035864;28;8835;-61
2022/10/05 02:32:09;;;;;;;;;7.00;6.00;;;;;13.04;69.75;100033.94;5035838;28;8827;-61
2022/10/05 02:34:36;;;;;;;;;7.00;6.50;;;;;13.04;70.02;100039.28;5035831;28;9553;-60
2022/10/05 02:37:04;;;;;;;;;7.50;6.75;;;;;13.01;70.36;100040.44;5036204;28;8839;-61
2022/10/05 02:39:32;;;;;;;;;10.00;9.50;;;;;13.02;70.57;100042.13;5035535;28;8847;-61
2022/10/05 02:41:59;;;;;;;;;6.00;6.00;;;;;13.06;70.17;100048.03;5035892;28;9509;-61
2022/10/05 02:44:27;;;;;;;;;6.50;6.50;;;;;13.08;69.79;100056.75;5035729;28;8852;-62
2022/10/05 02:46:55;;;;;;;;;6.00;6.00;;;;;13.09;70.26;100055.78;5035726;28;8914;-61
2022/10/05 02:49:24;;;;;;;;;9.00;7.00;;;;;13.07;69.82;100063.91;5035410;28;8816;-62
2022/10/05 02:51:51;;;;;;;;;8.00;6.50;;;;;13.07;70.05;100060.41;5036093;28;8827;-61
2022/10/05 02:54:19;;;;;;;;;9.00;7.00;;;;;13.08;69.98;100054.09;5038495;28;8831;-60
2022/10/05 02:56:47;;;;;;;;;5.25;4.50;;;;;13.10;70.42;100060.13;5039961;28;8844;-61
2022/10/05 02:59:15;;;;;;;;;6.00;5.00;;;;;13.13;69.94;100051.88;5039542;28;8816;-63
2022/10/05 03:01:43;;;;;;;;;7.00;7.00;;;;;13.17;69.80;100055.94;5039835;28;8836;-60
2022/10/05 03:04:11;;;;;;;;;9.50;8.00;;;;;13.16;69.62;100060.47;5039606;28;8831;-61
2022/10/05 03:06:38;;;;;;;;;5.00;4.00;;;;;13.19;69.88;100056.66;5039758;28;8836;-61
2022/10/05 03:09:06;;;;;;;;;6.50;6.50;;;;;13.20;70.07;100051.16;5039329;28;8913;-61
2022/10/05 03:11:34;;;;;;;;;7.00;7.00;;;;;13.23;69.46;100045.53;5039524;28;8909;-61
2022/10/05 03:14:01;;;;;;;;;6.50;6.00;;;;;13.26;69.68;100049.78;5039550;28;8931;-61
2022/10/05 03:16:29;;;;;;;;;9.25;8.75;;;;;13.29;70.07;100049.53;5039444;28;8828;-60
2022/10/05 03:18:57;;;;;;;;;7.50;7.00;;;;;13.28;69.55;100043.31;5039416;28;9540;-62
2022/10/05 03:21:25;;;;;;;;;8.00;7.00;;;;;13.27;69.69;100035.41;5038958;28;8820;-61
2022/10/05 03:23:53;;;;;;;;;9.25;7.50;;;;;13.27;69.35;100024.72;5039060;28;8917;-59
2022/10/05 03:26:21;;;;;;;;;6.50;5.50;;;;;13.25;70.03;100026.69;5039068;28;8910;-60
2022/10/05 03:28:48;;;;;;;;;6.75;6.00;;;;;13.23;70.08;100023.31;5039005;28;8820;-61
2022/10/05 03:31:16;;;;;;;;;8.50;6.75;;;;;13.20;70.08;100012.91;5039090;28;8836;-61
2022/10/05 03:33:44;;;;;;;;;6.50;6.50;;;;;13.18;70.36;100017.53;5039226;28;8866;-60
2022/10/05 03:36:11;;;;;;;;;6.50;6.50;;;;;13.17;70.22;100007.81;5038363;28;8820;-60
2022/10/05 03:38:39;;;;;;;;;7.00;6.50;;;;;13.15;69.65;100015.13;5038360;28;8832;-60
2022/10/05 03:41:07;;;;;;;;;3.75;3.50;;;;;13.14;69.84;100010.78;5038641;28;8913;-61
2022/10/05 03:43:35;;;;;;;;;6.75;6.75;;;;;13.14;70.86;99998.22;5039016;28;8844;-60
2022/10/05 03:46:03;;;;;;;;;9.00;6.75;;;;;13.11;70.03;99986.97;5039193;28;9504;-60
2022/10/05 03:48:30;;;;;;;;;7.00;6.75;;;;;13.11;70.21;99997.66;5039101;28;8850;-60
2022/10/05 03:50:58;;;;;;;;;7.00;6.75;;;;;13.10;70.24;99990.63;5038720;28;8828;-61
2022/10/05 03:53:26;;;;;;;;;3.75;3.75;;;;;13.09;70.44;99988.94;5038358;28;8942;-60
2022/10/05 03:55:53;;;;;;;;;8.50;7.00;;;;;13.09;70.08;99995.13;5037597;28;8843;-61
2022/10/05 03:58:21;;;;;;;;;8.50;6.75;;;;;13.08;70.99;99993.41;5037598;28;8859;-60
2022/10/05 04:00:49;;;;;;;;;6.75;6.25;;;;;13.08;70.60;99990.75;5037591;28;8848;-60
2022/10/05 04:03:16;;;;;;;;;6.25;5.50;;;;;13.06;70.40;99981.19;5037880;28;8824;-61
2022/10/05 04:05:45;;;;;;;;;10.00;9.00;;;;;13.03;70.48;99984.13;5036635;28;8840;-61
2022/10/05 04:08:13;;;;;;;;;6.00;6.00;;;;;13.00;70.96;99987.09;5037814;28;8882;-61
2022/10/05 04:10:41;;;;;;;;;5.00;5.00;;;;;12.93;70.93;99981.38;5038183;28;8856;-61
2022/10/05 04:13:08;;;;;;;;;6.00;6.00;;;;;12.91;71.15;99971.84;5038396;28;8842;-62
2022/10/05 04:15:36;;;;;;;;;9.00;7.00;;;;;12.87;71.33;99973.94;5038073;28;8840;-60
2022/10/05 04:18:04;;;;;;;;;6.50;4.50;;;;;12.83;70.97;99977.84;5038123;28;8847;-61
2022/10/05 04:20:31;;;;;;;;;7.50;7.00;;;;;12.79;71.24;99980.94;5037966;28;8832;-60
2022/10/05 04:22:59;;;;;;;;;6.50;6.50;;;;;12.74;71.63;99969.78;5038160;28;8824;-61
2022/10/05 04:25:27;;;;;;;;;7.50;7.50;;;;;12.68;71.79;99971.19;5038100;28;8926;-61
2022/10/05 04:27:55;;;;;;;;;8.00;6.50;;;;;12.65;71.59;99978.63;5037850;28;8898;-60
2022/10/05 04:30:23;;;;;;;;;6.75;6.75;;;;;12.65;71.77;99967.94;5037417;28;8853;-61
2022/10/05 04:32:51;;;;;;;;;6.25;6.25;;;;;12.65;71.91;99973.28;5037538;28;8823;-60
2022/10/05 04:35:19;;;;;;;;;6.50;6.50;;;;;12.66;71.28;99969.63;5038105;28;8929;-60
2022/10/05 04:37:46;;;;;;;;;6.75;6.25;;;;;12.68;71.41;99973.03;5037920;28;8839;-61
2022/10/05 04:40:14;;;;;;;;;9.75;8.50;;;;;12.66;72.13;99969.63;5037573;28;8864;-61
2022/10/05 04:42:41;;;;;;;;;7.33;6.33;;;;;12.64;71.64;99968.91;5037705;28;8832;-61
2022/10/05 04:45:09;;;;;;;;;6.50;6.50;;;;;12.64;71.85;99966.25;5037169;28;8824;-62
2022/10/05 04:47:37;;;;;;;;;6.00;5.50;;;;;12.62;71.20;99961.03;5017824;28;9570;-62
2022/10/05 04:50:06;;;;;;;;;6.50;6.00;;;;;12.60;71.89;99959.50;5017615;28;8860;-61
2022/10/05 04:52:33;;;;;;;;;4.50;4.50;;;;;12.62;72.01;99962.88;5017666;28;8945;-61
2022/10/05 04:55:03;;;;;;;;;7.50;6.25;;;;;12.62;71.69;99968.22;5017987;28;9520;-63
2022/10/05 04:57:32;;;;;;;;;11.25;9.00;;;;;12.61;71.64;99969.19;5032682;28;8953;-61
2022/10/05 05:00:00;;;;;;;;;9.00;8.00;;;;;12.59;71.97;99965.78;5016897;28;8858;-61
2022/10/05 05:02:28;;;;;;;;;6.50;5.00;;;;;12.58;72.32;99972.97;5016274;28;8846;-61
2022/10/05 05:04:56;;;;;;;;;11.50;9.00;;;;;12.59;72.21;99973.78;5016257;28;8838;-60
2022/10/05 05:07:24;;;;;;;;;4.50;4.00;;;;;12.61;72.25;99982.56;5032997;28;8844;-61
2022/10/05 05:09:54;;;;;;;;;11.50;9.00;;;;;12.62;72.23;99974.38;5035492;28;8868;-62
2022/10/05 05:12:25;;;;;;;;;7.50;7.00;;;;;12.62;72.54;99973.56;5036129;28;8847;-61
2022/10/05 05:14:52;;;;;;;;;8.50;8.00;;;;;12.62;72.25;99974.38;5036614;28;8839;-63
2022/10/05 05:17:20;;;;;;;;;7.00;7.00;;;;;12.63;72.60;99983.25;5035393;28;8835;-61
2022/10/05 05:19:48;;;;;;;;;9.00;9.00;;;;;12.64;72.48;99987.63;5035899;28;9923;-63
2022/10/05 05:22:15;;;;;;;;;9.50;7.50;;;;;12.65;72.52;99984.81;5035644;28;8844;-61
2022/10/05 05:24:43;;;;;;;;;5.50;4.00;;;;;12.68;72.49;99983.72;5036223;28;9687;-60
2022/10/05 05:27:11;;;;;;;;;9.25;9.25;;;;;12.68;72.50;99986.38;5036420;28;9640;-62
2022/10/05 05:29:38;;;;;;;;;6.75;6.75;;;;;12.72;72.60;99985.13;5035563;28;8840;-62
2022/10/05 05:32:06;;;;;;;;;9.50;8.50;;;;;12.73;72.90;99978.78;5035998;28;8860;-60
2022/10/05 05:34:34;;;;;;;;;8.00;8.00;;;;;12.76;72.63;99983.88;5035401;28;8928;-62
2022/10/05 05:37:02;;;;;;;;;9.50;9.50;;;;;12.79;72.36;99984.47;5035902;28;9528;-61
2022/10/05 05:39:29;;;;;;;;;6.75;6.00;;;;;12.78;72.38;99985.44;5036127;28;8851;-61
2022/10/05 05:41:57;;;;;;;;;10.00;9.00;;;;;12.77;72.21;99989.06;5036213;28;8922;-61
2022/10/05 05:44:25;;;;;;;;;7.00;7.00;;;;;12.80;72.53;99990.63;5035629;28;8856;-62
2022/10/05 05:46:52;;;;;;;;;10.00;9.25;;;;;12.80;72.65;99985.28;5035789;28;8933;-61
2022/10/05 05:49:36;;;;;;;;;9.75;9.50;;;;;12.81;73.18;99985.16;5035572;28;8819;-62
2022/10/05 05:52:04;;;;;;;;;7.00;6.75;;;;;12.83;73.16;99987.72;5035093;28;8908;-62
2022/10/05 05:54:33;;;;;;;;;12.00;10.00;;;;;12.85;72.81;99980.38;5035566;28;8851;-61
2022/10/05 05:57:03;;;;;;;;;9.00;9.00;;;;;12.88;72.91;99977.44;5035483;28;9604;-61
2022/10/05 05:59:31;;;;;;;;;9.00;9.00;;;;;12.90;73.17;99986.19;5035608;28;8836;-61
2022/10/05 06:01:58;;;;;;;;;6.00;5.00;;;;;12.92;72.63;99990.38;5035048;28;8924;-63
2022/10/05 06:04:26;;;;;;;;;9.00;8.00;;;;;12.96;72.60;99977.63;5034889;28;8832;-61
2022/10/05 06:06:54;;;;;;;;;11.00;10.00;;;;;12.99;72.70;99988.91;5034707;28;8895;-62
2022/10/05 06:09:22;;;;;;;;;9.00;9.00;;;;;13.02;72.90;99979.75;5035049;28;8866;-61
2022/10/05 06:11:50;;;;;;;;;7.00;7.00;;;;;13.09;72.93;99992.47;5035246;28;8840;-60
2022/10/05 06:14:17;;;;;;;;;8.25;7.00;;;;;13.18;72.57;99993.47;5034440;28;8871;-62
2022/10/05 06:16:45;;;;;;;;;7.50;6.50;;;;;13.27;73.00;99972.09;5034569;28;8836;-61
2022/10/05 06:19:13;;;;;;;;;7.50;7.00;;;;;13.36;72.70;99983.81;5033906;28;8848;-63
2022/10/05 06:21:41;;;;;;;;;12.25;9.75;;;;;13.42;72.61;99981.41;5034045;28;8831;-62
2022/10/05 06:24:09;;;;;;;;;7.00;7.00;;;;;13.49;72.77;99987.03;5033824;28;8831;-63
2022/10/05 06:26:37;;;;;;;;;12.00;10.00;;;;;13.55;72.30;99979.31;5034836;28;8839;-62
2022/10/05 06:29:04;;;;;;;;;11.00;9.25;;;;;13.62;72.05;99992.97;5034330;28;8863;-63
2022/10/05 06:31:32;;;;;;;;;12.00;12.00;;;;;13.68;72.34;99984.38;5034517;28;8890;-61
2022/10/05 06:34:00;;;;;;;;;10.00;9.00;;;;;13.71;72.10;99987.63;5034606;28;8882;-62
2022/10/05 06:36:28;;;;;;;;;10.50;9.50;;;;;13.77;71.78;99996.91;5035103;28;8864;-63
2022/10/05 06:38:56;;;;;;;;;12.25;12.25;;;;;13.83;71.69;99993.69;5034587;28;8844;-62
2022/10/05 06:41:24;;;;;;;;;12.00;11.50;;;;;13.88;72.62;99983.41;5033939;28;8867;-63
2022/10/05 06:43:52;;;;;;;;;10.50;10.50;;;;;13.95;71.72;99989.84;5034631;28;8840;-63
2022/10/05 06:46:19;;;;;;;;;10.00;8.50;;;;;14.01;71.99;99983.94;5033791;28;8870;-61
2022/10/05 06:48:47;;;;;;;;;10.50;10.25;;;;;14.10;71.42;99977.72;5034776;28;8827;-60
2022/10/05 06:51:15;;;;;;;;;12.00;12.00;;;;;14.16;71.72;99982.50;5034365;28;8982;-61
2022/10/05 06:53:43;;;;;;;;;9.00;9.00;;;;;14.23;72.18;99986.34;5034410;28;8900;-60
2022/10/05 06:56:10;;;;;;;;;7.00;6.50;;;;;14.30;71.74;99987.44;5034002;28;8847;-61
2022/10/05 06:58:38;;;;;;;;;8.00;8.00;;;;;14.37;71.60;99985.88;5034452;28;8836;-61
2022/10/05 07:01:09;;;;;;;;;9.75;9.75;;;;;14.45;71.68;99983.31;5033458;28;9594;-61
2022/10/05 07:03:37;;;;;;;;;8.25;6.50;;;;;14.52;71.13;99985.28;5034636;28;8938;-61
2022/10/05 07:06:04;;;;;;;;;10.00;9.50;;;;;14.59;70.90;99981.03;5034026;28;8819;-62
2022/10/05 07:08:32;;;;;;;;;12.00;10.00;;;;;14.67;71.23;99988.31;5035402;28;8839;-61
2022/10/05 07:11:00;;;;;;;;;5.00;5.00;;;;;14.72;71.17;99984.22;5035437;28;8849;-62
2022/10/05 07:13:28;;;;;;;;;9.50;9.25;;;;;14.78;70.95;99972.91;5035379;28;8855;-60
2022/10/05 07:15:55;;;;;;;;;7.50;6.00;;;;;14.86;70.96;99978.38;5034783;28;8914;-61
2022/10/05 07:18:23;;;;;;;;;5.50;4.50;;;;;14.94;70.62;99972.28;5034737;28;8832;-61
2022/10/05 07:20:51;;;;;;;;;8.00;7.00;;;;;15.01;70.58;99976.88;5034145;28;8917;-61
2022/10/05 07:23:19;;;;;;;;;7.50;7.50;;;;;15.06;70.83;99977.28;5034360;28;8938;-61
2022/10/05 07:25:48;;;;;;;;;11.00;9.50;;;;;15.12;70.26;99976.69;5033553;28;8848;-61
2022/10/05 07:28:15;;;;;;;;;12.50;9.75;;;;;15.17;70.02;99981.63;5033751;28;8847;-62
2022/10/05 07:30:43;;;;;;;;;9.75;7.50;;;;;15.22;70.50;99974.78;5033731;28;8865;-61
2022/10/05 07:33:11;;;;;;;;;9.50;8.50;;;;;15.27;70.79;99977.03;5033348;28;8874;-62
2022/10/05 07:38:24;;;;;;;;;11.50;11.50;;;;;15.35;70.06;99969.09;5033312;28;8898;-63
2022/10/05 07:40:52;;;;;;;;;11.00;8.50;;;;;15.39;70.13;99973.19;5036686;28;8873;-61
2022/10/05 07:43:21;;;;;;;;;9.50;9.00;;;;;15.43;69.96;99979.91;5037796;28;8840;-64
2022/10/05 07:45:48;;;;;;;;;6.25;6.00;;;;;15.47;70.27;99978.63;5037644;28;8852;-61
2022/10/05 07:48:16;;;;;;;;;10.50;10.00;;;;;15.49;70.04;99972.09;5037218;28;8855;-62
2022/10/05 07:50:44;;;;;;;;;12.00;11.00;;;;;15.52;69.69;99977.16;5036790;28;8986;-60
2022/10/05 07:53:12;;;;;;;;;12.25;9.50;;;;;15.55;69.78;99982.22;5036938;28;8853;-61
2022/10/05 07:55:40;;;;;;;;;9.25;9.00;;;;;15.58;69.78;99986.44;5036134;28;8846;-62
2022/10/05 07:58:07;;;;;;;;;9.20;7.80;;;;;15.60;70.29;99984.44;5035991;28;8835;-62
2022/10/05 08:00:35;;;;;;;;;8.60;7.00;;;;;15.64;70.17;99991.22;5036044;28;8941;-64
2022/10/05 08:03:03;;;;;;;;;10.80;10.00;;;;;15.64;69.51;99991.22;5036611;28;8877;-61
2022/10/05 08:05:32;;;;;;;;;10.00;9.00;;;;;15.65;69.87;99992.88;5036482;28;8975;-61
2022/10/05 08:08:00;;;;;;;;;8.80;8.20;;;;;15.65;70.07;99995.56;5037004;28;9622;-61
2022/10/05 08:10:27;;;;;;;;;9.00;8.50;;;;;15.66;69.84;99998.13;5036282;28;8847;-61
2022/10/05 08:12:56;;;;;;;;;8.50;8.50;;;;;15.67;70.14;100001.63;5036436;28;8928;-61
2022/10/05 08:15:24;;;;;;;;;7.00;6.25;;;;;15.67;69.99;99998.94;5036031;28;8875;-61
2022/10/05 08:17:52;;;;;;;;;6.00;5.50;;;;;15.68;69.91;100006.00;5035574;28;8828;-61
2022/10/05 08:20:20;;;;;;;;;7.00;6.80;;;;;15.68;69.76;99996.13;5035748;28;8844;-61
2022/10/05 08:22:47;;;;;;;;;7.00;4.50;;;;;15.70;69.75;99998.66;5035243;28;8970;-61
2022/10/05 08:25:15;;;;;;;;;7.00;7.00;;;;;15.71;70.14;100003.03;5035503;28;8832;-61
2022/10/05 08:27:43;;;;;;;;;6.60;5.20;;;;;15.72;70.08;100004.72;5035997;28;8881;-61
2022/10/05 08:30:11;;;;;;;;;6.00;6.00;;;;;15.74;69.61;100008.06;5034549;28;8820;-61
2022/10/05 08:32:40;;;;;;;;;9.20;8.60;;;;;15.74;70.05;100011.63;5035255;28;8847;-61
2022/10/05 08:35:07;;;;;;;;;9.60;7.40;;;;;15.76;69.96;100008.78;5035800;28;8852;-62
2022/10/05 08:37:35;;;;;;;;;9.20;6.00;;;;;15.78;70.30;100015.69;5035901;28;8847;-61
2022/10/05 08:40:03;;;;;;;;;8.60;7.00;;;;;15.78;69.72;100015.69;5036242;28;8843;-61
2022/10/05 08:42:31;;;;;;;;;8.20;7.80;;;;;15.80;69.41;100019.06;5036075;28;8921;-61
2022/10/05 08:44:59;;;;;;;;;9.25;8.00;;;;;15.79;69.16;100021.91;5036430;28;8871;-62
2022/10/05 08:47:27;;;;;;;;;7.80;7.00;;;;;15.79;69.68;100017.34;5036446;28;8974;-61
2022/10/05 08:49:55;;;;;;;;;6.60;5.20;;;;;15.78;69.79;100015.69;5036281;28;8854;-61
2022/10/05 08:52:23;;;;;;;;;9.80;9.40;;;;;15.80;69.49;100020.91;5036189;28;8835;-62
2022/10/05 08:54:51;;;;;;;;;5.00;5.00;;;;;15.80;70.27;100016.38;5035466;28;8840;-62
2022/10/05 08:57:19;;;;;;;;;9.00;8.50;;;;;15.82;69.72;100016.22;5036230;28;8851;-61
2022/10/05 08:59:47;;;;;;;;;8.00;8.00;;;;;15.86;69.87;100020.28;5036750;28;8851;-61
2022/10/05 09:02:15;;;;;;;;;7.00;7.00;;;;;15.87;69.92;100017.47;5036302;28;8879;-61
2022/10/05 09:04:43;;;;;;;;;13.00;10.50;;;;;15.95;69.74;100016.69;5035920;28;8843;-60
2022/10/05 09:07:10;;;;;;;;;10.00;9.00;;;;;16.02;69.69;100007.88;5035997;28;8838;-61
2022/10/05 09:09:38;;;;;;;;;10.40;9.00;;;;;16.14;69.39;100013.84;5036114;28;8840;-61
2022/10/05 09:12:06;;;;;;;;;3.00;2.20;;;;;16.25;68.71;100004.50;5035223;28;9093;-61
2022/10/05 09:14:34;;;;;;;;;6.80;6.80;;;;;16.36;68.36;99995.34;5035574;28;8852;-60
2022/10/05 09:17:02;;;;;;;;;6.20;6.20;;;;;16.44;68.80;99996.31;5034790;28;8855;-61
2022/10/05 09:19:30;;;;;;;;;10.00;9.00;;;;;16.51;68.49;99994.66;5034651;28;8862;-61
2022/10/05 09:21:58;;;;;;;;;8.40;6.40;;;;;16.60;68.17;99998.22;5034721;28;8836;-61
2022/10/05 09:24:26;;;;;;;;;7.00;6.40;;;;;16.68;68.12;99990.22;5034686;28;8950;-61
2022/10/05 09:26:54;;;;;;;;;9.60;8.60;;;;;16.78;67.92;99993.66;5033324;28;8843;-61
2022/10/05 09:29:21;;;;;;;;;4.40;4.00;;;;;16.84;67.80;99988.47;5033153;28;8836;-61
2022/10/05 09:31:50;;;;;;;;;8.20;8.20;;;;;16.92;67.73;99985.81;5033123;28;8924;-61
2022/10/05 09:34:18;;;;;;;;;9.40;9.40;;;;;17.01;67.65;99976.75;5032797;28;8815;-60
2022/10/05 09:36:45;;;;;;;;;6.20;6.20;;;;;17.15;67.46;99984.22;5032940;28;9236;-61
2022/10/05 09:39:13;;;;;;;;;4.80;3.40;;;;;17.27;66.46;99971.31;5033400;28;8949;-61
2022/10/05 09:41:41;;;;;;;;;3.60;3.60;;;;;17.40;66.46;99983.31;5033849;28;8836;-61
2022/10/05 09:44:09;;;;;;;;;7.80;7.80;;;;;17.52;65.99;99982.03;5034732;28;8854;-61
2022/10/05 09:46:37;;;;;;;;;4.40;4.40;;;;;17.62;65.81;99966.53;5034083;28;9733;-61
2022/10/05 09:49:05;;;;;;;;;6.60;6.60;;;;;17.74;65.81;99959.84;5033824;28;8856;-62
2022/10/05 09:51:33;;;;;;;;;7.80;6.60;;;;;17.90;65.23;99965.22;5033556;28;8848;-61
2022/10/05 09:54:02;;;;;;;;;9.40;8.60;;;;;18.10;64.79;99968.44;5034012;28;8843;-61
2022/10/05 09:56:33;;;;;;;;;4.60;4.40;;;;;18.14;64.41;99954.44;5033156;28;9672;-61
2022/10/05 09:59:02;;;;;;;;;7.00;7.00;;;;;18.23;63.86;99960.69;5033520;28;8937;-61
2022/10/05 10:01:30;;;;;;;;;6.00;6.00;;;;;18.23;63.56;99947.19;5033362;28;8844;-61
2022/10/05 10:04:00;;;;;;;;;7.40;6.40;;;;;18.26;63.82;99957.63;5033970;28;8903;-61
2022/10/05 10:06:28;;;;;;;;;3.80;2.20;;;;;18.32;63.28;99959.69;5033743;28;8848;-61
2022/10/05 10:08:56;;;;;;;;;12.00;10.00;;;;;18.29;63.40;99949.22;5032966;28;8986;-61
2022/10/05 10:11:24;;;;;;;;;9.80;7.00;;;;;18.32;63.55;99959.69;5032227;28;8839;-61
2022/10/05 10:13:52;;;;;;;;;7.00;7.00;;;;;18.34;63.49;99953.13;5032740;28;8866;-61
2022/10/05 10:16:22;;;;;;;;;7.20;6.40;;;;;18.32;63.66;99955.16;5032442;28;8867;-61
2022/10/05 10:18:50;;;;;;;;;6.00;6.00;;;;;18.31;63.36;99945.38;5032649;28;8839;-61
2022/10/05 10:21:18;;;;;;;;;6.00;6.00;;;;;18.29;63.76;99950.03;5031918;28;8852;-61
2022/10/05 10:23:46;;;;;;;;;6.40;6.20;;;;;18.25;63.66;99962.19;5032713;28;9267;-61
2022/10/05 10:26:15;;;;;;;;;7.00;7.00;;;;;18.20;63.64;99961.00;5033158;28;8859;-61
2022/10/05 10:28:42;;;;;;;;;7.00;6.40;;;;;18.11;64.03;99964.72;5033020;28;8859;-60
2022/10/05 10:31:11;;;;;;;;;3.00;2.20;;;;;18.02;64.17;99953.13;5034226;28;8843;-62
2022/10/05 10:33:39;;;;;;;;;3.60;2.60;;;;;17.94;64.13;99966.59;5034091;28;8852;-61
2022/10/05 10:36:07;;;;;;;;;4.80;4.80;;;;;17.90;64.35;99949.06;5033235;28;8844;-61
2022/10/05 10:38:36;;;;;;;;;6.00;6.00;;;;;17.91;64.33;99966.09;5033468;28;8874;-61
2022/10/05 10:41:03;;;;;;;;;6.40;6.00;;;;;17.91;64.61;99960.69;5033365;28;8835;-62
2022/10/05 10:43:32;;;;;;;;;3.80;3.80;;;;;17.91;64.18;99966.09;5032999;28;8847;-61
2022/10/05 10:46:00;;;;;;;;;6.60;6.40;;;;;17.94;64.33;99971.13;5033131;28;8856;-61
2022/10/05 10:48:27;;;;;;;;;5.60;4.40;;;;;17.96;64.12;99961.00;5033075;28;9572;-61
2022/10/05 10:50:55;;;;;;;;;3.40;3.40;;;;;17.93;64.73;99967.56;5033558;28;8868;-61
2022/10/05 10:53:23;;;;;;;;;4.80;4.00;;;;;17.94;64.03;99968.44;5033803;28;8832;-61
2022/10/05 10:55:52;;;;;;;;;5.80;4.20;;;;;17.98;64.22;99957.16;5033340;28;8882;-62
2022/10/05 10:58:20;;;;;;;;;5.20;5.20;;;;;18.04;63.99;99955.63;5034372;28;8934;-61
2022/10/05 11:00:50;;;;;;;;;4.40;4.40;;;;;18.13;63.32;99952.75;5034221;28;8863;-61
2022/10/05 11:03:18;;;;;;;;;6.00;5.60;;;;;18.29;63.23;99950.03;5033420;28;8847;-62
2022/10/05 11:05:46;;;;;;;;;6.00;6.00;;;;;18.49;63.01;99947.84;5033950;28;8881;-61
2022/10/05 11:08:15;;;;;;;;;3.00;3.00;;;;;18.67;62.17;99943.91;5033703;28;8847;-60
2022/10/05 11:10:44;;;;;;;;;1.80;1.80;;;;;18.84;61.90;99934.78;5033026;28;8986;-61
2022/10/05 11:13:12;;;;;;;;;5.60;4.80;;;;;19.16;61.32;99940.03;5032737;28;8840;-61
2022/10/05 11:15:40;;;;;;;;;4.00;4.00;;;;;19.34;60.94;99931.69;5035773;28;8852;-61
2022/10/05 11:18:08;;;;;;;;;3.40;3.40;;;;;19.36;60.95;99933.19;5036328;28;8870;-61
2022/10/05 11:20:36;;;;;;;;;3.60;3.40;;;;;19.41;60.65;99924.56;5035994;28;8918;-61
2022/10/05 11:23:05;;;;;;;;;3.40;3.40;;;;;19.88;59.71;99926.03;5036337;28;8847;-62
2022/10/05 11:25:33;;;;;;;;;3.00;3.00;;;;;20.48;58.39;99916.03;5036945;28;8933;-61
2022/10/05 11:28:01;;;;;;;;;5.20;5.20;;;;;20.96;57.13;99918.22;5036645;28;8844;-59
2022/10/05 11:30:29;;;;;;;;;4.00;4.00;;;;;20.97;57.50;99909.91;5036191;28;8847;-59
2022/10/05 11:32:58;;;;;;;;;3.60;3.60;;;;;21.20;56.66;99918.72;5036403;28;8933;-59
2022/10/05 11:35:26;;;;;;;;;4.20;4.20;;;;;21.86;55.15;99901.34;5036414;28;8855;-59
2022/10/05 11:37:54;;;;;;;;;5.00;4.00;;;;;22.58;53.73;99903.59;5036635;28;8901;-58
2022/10/05 11:40:22;;;;;;;;;4.40;4.40;;;;;22.30;54.65;99899.22;5036633;28;8843;-59
2022/10/05 11:42:50;;;;;;;;;2.00;2.00;;;;;21.93;55.32;99896.81;5036798;28;8832;-58